createdAt,value
2023-05-04T00:04:29.105Z,2225.48148
2023-05-04T00:09:30.412Z,2408
2023-05-04T00:14:32.052Z,2408
2023-05-04T00:19:33.650Z,2744
2023-05-04T00:24:35.297Z,3024
2023-05-04T00:29:36.607Z,3186.10526
2023-05-04T00:34:37.962Z,2877.33333
2023-05-04T00:39:39.678Z,2622.26087
2023-05-04T00:44:41.392Z,2313.23077
2023-05-04T00:49:42.808Z,2313.23077
2023-05-04T00:54:44.297Z,1931.09677
2023-05-04T00:59:45.554Z,1704
2023-05-04T01:04:46.893Z,1608.86486
2023-05-04T01:09:48.396Z,1608.86486
2023-05-04T01:14:49.646Z,1484
2023-05-04T01:19:51.017Z,1344
2023-05-04T01:24:52.502Z,1376.55814
2023-05-04T01:29:53.857Z,1283.13043
2023-05-04T01:34:55.129Z,1254.6383
2023-05-04T01:39:56.560Z,1283.13043
2023-05-04T01:44:58.146Z,1201.14286
2023-05-04T01:49:59.487Z,1254.6383
2023-05-04T01:55:00.724Z,1227.33333
2023-05-04T02:00:02.984Z,1201.14286
2023-05-04T02:05:04.733Z,1176
2023-05-04T02:10:06.533Z,1106.26415
2023-05-04T02:15:08.391Z,1106.26415
2023-05-04T02:20:10.006Z,1064
2023-05-04T02:25:11.979Z,1084.74074
2023-05-04T02:30:13.540Z,1024.70175
2023-05-04T02:35:14.947Z,1006.06897
2023-05-04T02:40:16.374Z,1006.06897
2023-05-04T02:45:17.887Z,970.66667
2023-05-04T02:50:19.275Z,953.83607
2023-05-04T02:55:20.727Z,937.54839
2023-05-04T03:00:22.169Z,953.83607
2023-05-04T03:05:23.804Z,953.83607
2023-05-04T03:10:25.329Z,906.5
2023-05-04T03:15:26.831Z,921.77778
2023-05-04T03:20:28.418Z,849.88235
2023-05-04T03:25:29.992Z,877.33333
2023-05-04T03:30:31.288Z,836.75362
2023-05-04T03:35:32.748Z,824
2023-05-04T03:40:34.345Z,799.55556
2023-05-04T03:45:35.825Z,765.33333
2023-05-04T03:50:37.311Z,787.83562
2023-05-04T03:55:38.840Z,754.52632
2023-05-04T04:00:40.573Z,787.83562
2023-05-04T04:05:42.140Z,723.74684
2023-05-04T04:10:43.786Z,787.83562
2023-05-04T04:15:45.099Z,776.43243
2023-05-04T04:20:46.458Z,754.52632
2023-05-04T04:25:47.791Z,714
2023-05-04T04:30:49.071Z,686.16867
2023-05-04T04:35:50.366Z,686.16867
2023-05-04T04:40:52.045Z,686.16867
2023-05-04T04:45:53.331Z,686.16867
2023-05-04T04:50:54.875Z,677.33333
2023-05-04T04:55:56.524Z,677.33333
2023-05-04T05:00:58.152Z,668.70588
2023-05-04T05:06:00.052Z,660.27907
2023-05-04T05:11:01.678Z,660.27907
2023-05-04T05:16:03.228Z,652.04598
2023-05-04T05:21:04.808Z,652.04598
2023-05-04T05:26:06.543Z,660.27907
2023-05-04T05:31:08.213Z,714
2023-05-04T05:36:09.878Z,765.33333
2023-05-04T05:41:11.668Z,811.60563
2023-05-04T05:46:13.433Z,787.83562
2023-05-04T05:51:15.425Z,824
2023-05-04T05:56:17.365Z,836.75362
2023-05-04T06:01:19.036Z,849.88235
2023-05-04T06:06:20.771Z,891.69231
2023-05-04T06:11:22.481Z,891.69231
2023-05-04T06:16:24.360Z,953.83607
2023-05-04T06:21:26.044Z,863.40299
2023-05-04T06:26:27.824Z,836.75362
2023-05-04T06:31:29.527Z,849.88235
2023-05-04T06:36:31.183Z,836.75362
2023-05-04T06:41:32.862Z,811.60563
2023-05-04T06:46:34.595Z,906.5
2023-05-04T06:51:36.507Z,953.83607
2023-05-04T06:56:38.313Z,1106.26415
2023-05-04T07:01:40.034Z,1024.70175
2023-05-04T07:06:41.729Z,1446.43902
2023-05-04T07:11:43.523Z,2510.66667
2023-05-04T07:16:45.026Z,7644
2023-05-04T07:21:46.464Z,15344
2023-05-04T07:26:47.904Z,20477.33333
2023-05-04T07:31:49.218Z,30744
2023-05-04T07:36:50.569Z,30744
2023-05-04T07:41:51.926Z,30744
2023-05-04T07:46:53.295Z,30744
2023-05-04T07:51:54.756Z,61544
2023-05-04T07:56:56.203Z,61544
2023-05-04T08:01:57.927Z,61544
2023-05-04T08:06:59.313Z,61544
2023-05-04T08:12:00.784Z,61544
2023-05-04T08:17:02.248Z,61544
2023-05-04T08:22:03.557Z,61544
2023-05-04T08:27:08.813Z,61544
2023-05-04T08:32:11.623Z,61544
2023-05-04T08:37:13.380Z,0
2023-05-04T08:42:14.998Z,61544
2023-05-04T08:47:16.543Z,61544
2023-05-04T08:52:18.208Z,0
2023-05-04T08:57:19.910Z,61544
2023-05-04T09:02:21.445Z,61544
2023-05-04T09:07:23.030Z,0
2023-05-04T09:12:24.609Z,0
2023-05-04T09:17:26.351Z,61544
2023-05-04T09:22:28.886Z,0
2023-05-04T09:27:30.228Z,0
2023-05-04T09:32:31.844Z,0
2023-05-04T09:37:33.475Z,0
2023-05-04T09:42:35.223Z,0
2023-05-04T09:47:36.860Z,0
2023-05-04T09:52:38.607Z,0
2023-05-04T09:57:40.192Z,0
2023-05-04T10:02:42.159Z,61544
2023-05-04T10:07:43.984Z,0
2023-05-04T10:12:45.577Z,0
2023-05-04T10:17:47.008Z,0
2023-05-04T10:22:48.590Z,0
2023-05-04T10:27:50.030Z,0
2023-05-04T10:32:51.374Z,0
2023-05-04T10:37:52.668Z,0
2023-05-04T10:42:54.137Z,0
2023-05-04T10:47:55.512Z,0
2023-05-04T10:52:58.343Z,0
2023-05-04T10:58:01.544Z,0
2023-05-04T11:03:02.931Z,0
2023-05-04T11:08:04.266Z,0
2023-05-04T11:13:06.838Z,0
2023-05-04T11:18:09.081Z,0
2023-05-04T11:23:10.529Z,0
2023-05-04T11:28:14.334Z,0
2023-05-04T11:33:16.081Z,0
2023-05-04T11:38:17.529Z,0
2023-05-04T11:43:18.967Z,0
2023-05-04T11:48:20.335Z,0
2023-05-04T11:53:21.616Z,0
2023-05-04T11:58:23.052Z,0
2023-05-04T12:03:27.730Z,0
2023-05-04T12:08:33.892Z,0
2023-05-04T12:13:35.364Z,0
2023-05-04T12:18:36.611Z,0
2023-05-04T12:23:37.865Z,0
2023-05-04T12:28:39.317Z,0
2023-05-04T12:33:40.585Z,0
2023-05-04T12:38:42.023Z,0
2023-05-04T12:43:43.333Z,0
2023-05-04T12:48:44.672Z,0
2023-05-04T12:53:46.059Z,0
2023-05-04T12:58:47.612Z,0
2023-05-04T13:03:49.310Z,0
2023-05-04T13:08:51.117Z,0
2023-05-04T13:13:52.603Z,0
2023-05-04T13:18:53.892Z,0
2023-05-04T13:23:55.144Z,0
2023-05-04T13:28:56.685Z,0
2023-05-04T13:33:58.462Z,20477.33333
2023-05-04T13:39:00.057Z,61544
2023-05-04T13:44:01.813Z,0
2023-05-04T13:49:03.496Z,61544
2023-05-04T13:54:05.180Z,61544
2023-05-04T13:59:06.878Z,61544
2023-05-04T14:04:08.451Z,61544
2023-05-04T14:09:09.952Z,30744
2023-05-04T14:14:11.370Z,30744
2023-05-04T14:19:12.711Z,61544
2023-05-04T14:24:14.019Z,20477.33333
2023-05-04T14:29:15.513Z,20477.33333
2023-05-04T14:34:16.808Z,12264
2023-05-04T14:39:18.433Z,10210.66667
2023-05-04T14:44:19.869Z,3366.22222
2023-05-04T14:49:35.608Z,10210.66667
2023-05-04T14:54:38.755Z,6104
2023-05-04T14:59:40.383Z,4050.66667
2023-05-04T15:04:41.880Z,5544
2023-05-04T15:09:43.343Z,4050.66667
2023-05-04T15:14:45.128Z,8744
2023-05-04T15:19:46.814Z,6788.44444
2023-05-04T15:24:48.135Z,3794
2023-05-04T15:29:49.754Z,2877.33333
2023-05-04T15:35:03.785Z,4682.46154
2023-05-04T15:40:07.754Z,4344
2023-05-04T15:45:10.657Z,2877.33333
2023-05-04T15:50:12.475Z,2744
2023-05-04T15:55:24.722Z,2877.33333
2023-05-04T16:00:27.106Z,2225.48148
2023-05-04T16:05:28.850Z,1997.33333
2023-05-04T16:10:30.136Z,2144
2023-05-04T16:15:31.429Z,3366.22222
2023-05-04T16:20:32.838Z,3567.52941
2023-05-04T16:25:34.074Z,5077.33333
2023-05-04T16:30:35.511Z,8744
2023-05-04T16:35:37.015Z,8744
2023-05-04T16:40:38.420Z,5544
2023-05-04T16:45:39.937Z,5544
2023-05-04T16:50:41.318Z,10210.66667
2023-05-04T16:55:42.609Z,20477.33333
2023-05-04T17:00:44.166Z,7644
2023-05-04T17:05:45.415Z,6104
2023-05-04T17:10:47.632Z,5544
2023-05-04T17:15:48.937Z,7644
2023-05-04T17:20:50.231Z,7644
2023-05-04T17:25:51.450Z,8744
2023-05-04T17:30:52.768Z,8744
2023-05-04T17:35:54.026Z,6104
2023-05-04T17:40:55.526Z,6788.44444
2023-05-04T17:45:57.077Z,6788.44444
2023-05-04T17:50:58.366Z,6104
2023-05-04T17:55:59.613Z,6104
2023-05-04T18:01:00.971Z,6788.44444
2023-05-04T18:06:02.297Z,6788.44444
2023-05-04T18:11:03.603Z,7644
2023-05-04T18:16:05.092Z,6788.44444
2023-05-04T18:21:06.353Z,7644
2023-05-04T18:26:07.721Z,6788.44444
2023-05-04T18:31:09.111Z,6104
2023-05-04T18:36:10.368Z,7644
2023-05-04T18:41:11.592Z,6104
2023-05-04T18:46:13.082Z,4050.66667
2023-05-04T18:51:14.440Z,4344
2023-05-04T18:56:15.692Z,4050.66667
2023-05-04T19:01:17.348Z,4344
2023-05-04T19:06:18.723Z,3366.22222
2023-05-04T19:11:19.994Z,5077.33333
2023-05-04T19:16:21.517Z,6788.44444
2023-05-04T19:21:22.849Z,4682.46154
2023-05-04T19:26:24.310Z,4344
2023-05-04T19:31:25.909Z,3794
2023-05-04T19:36:27.244Z,5544
2023-05-04T19:41:28.573Z,6788.44444
2023-05-04T19:46:29.826Z,10210.66667
2023-05-04T19:51:31.245Z,8744
2023-05-04T19:56:32.547Z,8744
2023-05-04T20:01:34.003Z,10210.66667
2023-05-04T20:06:35.250Z,10210.66667
2023-05-04T20:11:36.624Z,7644
2023-05-04T20:16:38.152Z,6788.44444
2023-05-04T20:21:39.713Z,7644
2023-05-04T20:26:40.983Z,6788.44444
2023-05-04T20:31:42.299Z,6104
2023-05-04T20:36:43.579Z,4344
2023-05-04T20:41:44.869Z,3794
2023-05-04T20:46:46.147Z,3024
2023-05-04T20:51:47.377Z,3024
2023-05-04T20:56:48.871Z,2877.33333
2023-05-04T21:01:50.163Z,2877.33333
2023-05-04T21:06:51.999Z,3186.10526
2023-05-04T21:11:53.237Z,4050.66667
2023-05-04T21:16:54.599Z,3794
2023-05-04T21:21:55.851Z,3186.10526
2023-05-04T21:26:57.129Z,3186.10526
2023-05-04T21:31:58.436Z,2877.33333
2023-05-04T21:36:59.761Z,3186.10526
2023-05-04T21:42:01.125Z,3024
2023-05-04T21:47:02.459Z,3366.22222
2023-05-04T21:52:03.801Z,3567.52941
2023-05-04T21:57:05.095Z,3366.22222
2023-05-04T22:02:06.337Z,3186.10526
2023-05-04T22:07:07.621Z,2877.33333
2023-05-04T22:12:08.927Z,3186.10526
2023-05-04T22:17:10.442Z,3186.10526
2023-05-04T22:22:11.702Z,3024
2023-05-04T22:27:13.068Z,3186.10526
2023-05-04T22:32:14.718Z,2877.33333
2023-05-04T22:37:15.977Z,3794
2023-05-04T22:42:17.260Z,3794
2023-05-04T22:47:18.526Z,4344
2023-05-04T22:52:19.924Z,2622.26087
2023-05-04T22:57:21.194Z,2144
2023-05-04T23:02:22.834Z,2408
2023-05-04T23:07:24.194Z,1931.09677
2023-05-04T23:12:25.413Z,1755.76471
2023-05-04T23:17:27.063Z,1869
2023-05-04T23:22:28.392Z,2408
2023-05-04T23:27:29.844Z,5077.33333
2023-05-04T23:32:31.235Z,4682.46154
2023-05-04T23:37:32.777Z,4344
2023-05-04T23:42:34.359Z,4344
2023-05-04T23:47:35.977Z,4682.46154
2023-05-04T23:52:37.310Z,4050.66667
2023-05-04T23:57:38.648Z,4050.66667
